Time;durP1;ratioP1;P1;durP2;ratioP2;P2;SDS_P1;SDS_P2;PMS_P1;PMS_P2;Temp;Humidity;BMP_temperature;BMP_pressure;BME280_temperature;BME280_humidity;BME280_pressure;Samples;Min_cycle;Max_cycle;Signal;HPM_P1;HPM_P2
2023/01/01 08:00:49;;;;;;;3.43;3.10;;;8.80;99.90;;;;;;5141843;27;20271;-79
2023/01/01 08:03:15;;;;;;;4.00;2.67;;;8.70;99.90;;;;;;5122398;28;20214;-79
2023/01/01 08:05:41;;;;;;;5.10;2.97;;;8.80;99.90;;;;;;5141120;28;20181;-80
2023/01/01 08:08:07;;;;;;;3.30;2.63;;;8.90;99.90;;;;;;5123474;28;20182;-79
2023/01/01 08:10:33;;;;;;;3.20;2.30;;;8.90;99.90;;;;;;5141758;28;20218;-80
2023/01/01 08:13:00;;;;;;;4.70;2.70;;;9.10;99.90;;;;;;5141036;27;20175;-81
2023/01/01 08:15:26;;;;;;;3.17;2.70;;;9.10;99.90;;;;;;5140820;27;20167;-81
2023/01/01 08:17:58;;;;;;;4.10;2.60;;;9.20;99.90;;;;;;5139951;28;20234;-80
2023/01/01 08:20:26;;;;;;;2.73;2.23;;;9.40;99.90;;;;;;5142243;27;20205;-80
2023/01/01 08:22:52;;;;;;;3.23;2.60;;;9.70;99.90;;;;;;5139955;28;20171;-79
2023/01/01 08:25:17;;;;;;;2.87;2.30;;;10.20;99.90;;;;;;5140584;27;20178;-79
2023/01/01 08:27:43;;;;;;;3.10;2.70;;;10.80;99.90;;;;;;5139989;27;20186;-80
2023/01/01 08:30:11;;;;;;;3.10;2.50;;;11.30;99.90;;;;;;5139765;28;20199;-80
2023/01/01 08:32:37;;;;;;;15.50;11.07;;;11.60;99.90;;;;;;5138914;28;20187;-80
2023/01/01 08:35:03;;;;;;;4.90;4.10;;;11.70;99.90;;;;;;5138541;27;20277;-80
2023/01/01 08:37:29;;;;;;;2.63;2.27;;;11.80;99.90;;;;;;5137004;28;20209;-82
2023/01/01 08:39:55;;;;;;;3.00;2.40;;;12.10;99.90;;;;;;5140925;27;20210;-82
2023/01/01 08:42:21;;;;;;;2.43;2.10;;;12.30;99.90;;;;;;5140090;28;20179;-83
2023/01/01 08:44:46;;;;;;;2.63;2.43;;;12.30;99.90;;;;;;5141424;27;20171;-81
2023/01/01 08:47:24;;;;;;;2.70;2.00;;;12.40;99.90;;;;;;5140074;28;20171;-82
2023/01/01 08:49:51;;;;;;;2.47;2.27;;;12.40;99.90;;;;;;5141630;27;20199;-83
2023/01/01 08:52:17;;;;;;;3.37;2.37;;;12.30;99.90;;;;;;5139869;28;20211;-81
2023/01/01 08:54:43;;;;;;;2.80;2.00;;;12.40;99.90;;;;;;5141507;28;20232;-82
2023/01/01 08:57:09;;;;;;;1.80;1.67;;;12.50;99.90;;;;;;5140717;27;20251;-81
2023/01/01 08:59:35;;;;;;;3.03;2.40;;;12.50;99.90;;;;;;5138677;28;20285;-81
2023/01/01 09:02:01;;;;;;;3.53;2.50;;;12.60;99.90;;;;;;5143266;28;20171;-83
2023/01/01 09:04:26;;;;;;;3.27;2.37;;;12.60;99.90;;;;;;5137915;28;20192;-82
2023/01/01 09:06:52;;;;;;;4.03;2.40;;;12.70;99.90;;;;;;5142779;28;20236;-81
2023/01/01 09:09:18;;;;;;;2.93;2.20;;;12.80;99.90;;;;;;5154085;27;20345;-82
2023/01/01 09:11:54;;;;;;;3.73;2.60;;;13.00;99.90;;;;;;5126625;28;20201;-82
2023/01/01 09:14:21;;;;;;;4.40;2.37;;;13.40;99.90;;;;;;5123548;28;20206;-82
2023/01/01 09:16:47;;;;;;;3.33;2.60;;;13.50;99.90;;;;;;5122707;28;20265;-82
2023/01/01 09:19:13;;;;;;;2.87;2.13;;;13.60;99.90;;;;;;5123167;28;20232;-82
2023/01/01 09:21:38;;;;;;;3.63;2.10;;;13.80;99.90;;;;;;5123020;28;20183;-81
2023/01/01 09:24:04;;;;;;;2.30;1.97;;;13.90;99.90;;;;;;5121947;28;20176;-81
2023/01/01 09:26:30;;;;;;;3.53;2.03;;;14.00;99.90;;;;;;5123986;28;20179;-81
2023/01/01 09:28:56;;;;;;;3.07;2.47;;;14.30;99.90;;;;;;5121090;28;20753;-81
2023/01/01 09:31:22;;;;;;;2.47;1.87;;;14.40;99.90;;;;;;5121851;28;20183;-82
2023/01/01 09:33:48;;;;;;;2.47;1.90;;;14.60;99.90;;;;;;5122107;28;20555;-82
2023/01/01 09:36:20;;;;;;;2.00;1.80;;;14.90;99.90;;;;;;5121006;28;20187;-82
2023/01/01 09:38:49;;;;;;;2.10;1.90;;;15.00;99.90;;;;;;5120564;28;20300;-81
2023/01/01 09:41:33;;;;;;;2.93;2.30;;;15.20;99.90;;;;;;5122110;28;20612;-81
2023/01/01 09:44:04;;;;;;;2.90;2.23;;;15.20;99.90;;;;;;5120601;28;20187;-82
2023/01/01 09:46:31;;;;;;;3.67;2.30;;;15.60;99.90;;;;;;5120854;28;20182;-82
2023/01/01 09:49:01;;;;;;;2.27;2.00;;;15.70;99.90;;;;;;5121031;28;20256;-82
2023/01/01 09:51:33;;;;;;;1.83;1.67;;;16.00;99.90;;;;;;5122956;28;20171;-81
2023/01/01 09:54:07;;;;;;;2.10;1.63;;;16.10;99.90;;;;;;5121444;28;20178;-81
2023/01/01 09:56:35;;;;;;;1.83;1.60;;;16.50;99.90;;;;;;5123355;28;20305;-82
2023/01/01 09:59:01;;;;;;;2.10;1.60;;;16.40;99.90;;;;;;5123046;28;20241;-81
2023/01/01 10:01:32;;;;;;;2.13;1.60;;;16.40;99.90;;;;;;5121275;28;20634;-82
2023/01/01 10:04:24;;;;;;;2.30;1.70;;;16.50;99.90;;;;;;5121099;28;20644;-83
2023/01/01 10:07:00;;;;;;;2.73;1.60;;;16.50;99.90;;;;;;5123008;28;20168;-82
2023/01/01 10:09:54;;;;;;;2.00;1.73;;;16.60;99.90;;;;;;5121943;28;20266;-82
2023/01/01 10:12:46;;;;;;;4.13;1.73;;;16.60;99.90;;;;;;5123547;28;20175;-82
2023/01/01 10:15:22;;;;;;;3.70;2.20;;;16.60;99.90;;;;;;5120886;28;20282;-82
2023/01/01 10:17:54;;;;;;;2.47;2.20;;;17.20;99.90;;;;;;5122973;28;20148;-82
2023/01/01 10:20:32;;;;;;;1.90;1.70;;;17.60;98.60;;;;;;5123591;28;20203;-83
2023/01/01 10:23:18;;;;;;;3.70;2.13;;;17.60;97.70;;;;;;5120075;27;20163;-81
2023/01/01 10:25:44;;;;;;;2.87;2.00;;;17.40;97.60;;;;;;5123088;28;20221;-82
2023/01/01 10:28:25;;;;;;;1.90;1.70;;;17.20;98.40;;;;;;5122072;28;20179;-81
2023/01/01 10:30:55;;;;;;;2.40;2.10;;;17.20;98.00;;;;;;5123979;28;20655;-82
2023/01/01 10:33:20;;;;;;;1.80;1.50;;;17.60;99.00;;;;;;5123173;28;20182;-81
2023/01/01 10:35:55;;;;;;;4.00;1.83;;;17.80;97.20;;;;;;5123845;28;20525;-82
2023/01/01 10:38:23;;;;;;;1.90;1.60;;;17.90;97.30;;;;;;5123086;28;20174;-81
2023/01/01 10:41:02;;;;;;;1.90;1.60;;;18.10;96.90;;;;;;5121893;28;20262;-82
2023/01/01 10:43:28;;;;;;;2.07;1.57;;;18.50;97.60;;;;;;5121944;28;20173;-83
2023/01/01 10:45:54;;;;;;;2.63;1.50;;;18.60;96.50;;;;;;5123129;28;20174;-82
2023/01/01 10:48:22;;;;;;;2.53;1.87;;;18.90;95.80;;;;;;5122768;28;20182;-82
2023/01/01 10:51:12;;;;;;;1.93;1.73;;;18.90;94.70;;;;;;5122476;28;20175;-82
2023/01/01 10:53:41;;;;;;;2.17;1.80;;;18.90;95.30;;;;;;5121843;28;20168;-82
2023/01/01 10:56:14;;;;;;;2.50;1.90;;;18.80;94.60;;;;;;5124402;28;20169;-81
2023/01/01 10:58:47;;;;;;;2.37;1.80;;;18.10;95.10;;;;;;5123800;28;20176;-82
2023/01/01 11:01:23;;;;;;;2.33;1.80;;;18.00;94.50;;;;;;5122404;28;20195;-82
2023/01/01 11:04:06;;;;;;;1.83;1.40;;;18.10;95.40;;;;;;5122667;28;20175;-82
2023/01/01 11:06:35;;;;;;;1.90;1.60;;;18.40;95.80;;;;;;5124117;28;20175;-82
2023/01/01 11:09:26;;;;;;;1.77;1.37;;;18.50;95.10;;;;;;5125406;28;20261;-83
2023/01/01 11:11:58;;;;;;;2.30;1.77;;;18.40;95.10;;;;;;5120257;28;20192;-83
2023/01/01 11:14:30;;;;;;;1.73;1.60;;;18.30;94.80;;;;;;5125943;28;20175;-83
2023/01/01 11:16:57;;;;;;;3.07;1.93;;;18.30;94.70;;;;;;5124991;27;20176;-81
2023/01/01 11:19:31;;;;;;;2.40;1.90;;;18.10;95.60;;;;;;5123747;28;20292;-82
2023/01/01 11:21:57;;;;;;;2.27;2.07;;;18.00;96.20;;;;;;5122727;28;20195;-81
2023/01/01 11:24:28;;;;;;;1.90;1.70;;;18.20;96.10;;;;;;5122648;28;20290;-82
2023/01/01 11:27:18;;;;;;;3.00;2.30;;;18.30;96.30;;;;;;5121175;28;20174;-80
2023/01/01 11:29:43;;;;;;;2.20;1.70;;;18.50;96.40;;;;;;5122821;28;20192;-81
2023/01/01 11:32:15;;;;;;;2.30;2.00;;;18.80;95.30;;;;;;5122268;28;20182;-82
2023/01/01 11:34:43;;;;;;;2.90;1.70;;;19.00;95.80;;;;;;5124236;28;20169;-81
2023/01/01 11:37:20;;;;;;;3.07;2.43;;;19.50;95.60;;;;;;5123220;28;20249;-82
2023/01/01 11:39:51;;;;;;;2.97;2.30;;;19.60;96.10;;;;;;5123606;28;20224;-81
2023/01/01 11:42:19;;;;;;;2.30;2.10;;;19.60;94.20;;;;;;5122558;28;20192;-82
2023/01/01 11:44:50;;;;;;;1.40;1.30;;;19.70;94.80;;;;;;5123080;28;20179;-82
2023/01/01 11:47:36;;;;;;;3.27;1.47;;;20.10;93.10;;;;;;5123095;28;20630;-82
2023/01/01 11:50:24;;;;;;;1.67;1.30;;;19.80;91.80;;;;;;5123287;28;20640;-82
2023/01/01 11:52:52;;;;;;;1.70;1.50;;;19.30;93.30;;;;;;5113553;28;20564;-82
2023/01/01 11:55:37;;;;;;;1.30;1.20;;;18.90;94.20;;;;;;5122970;28;20184;-82
2023/01/01 11:58:22;;;;;;;1.83;1.50;;;18.90;93.80;;;;;;5121347;28;20267;-81
2023/01/01 12:00:53;;;;;;;1.60;1.50;;;19.40;92.90;;;;;;5120752;28;20289;-81
2023/01/01 12:03:44;;;;;;;1.87;1.77;;;19.90;93.00;;;;;;5120070;28;20226;-81
2023/01/01 12:06:26;;;;;;;1.40;1.30;;;20.30;91.70;;;;;;5088898;28;20183;-81
2023/01/01 12:08:55;;;;;;;1.20;1.10;;;20.70;90.90;;;;;;5119728;28;20201;-84
2023/01/01 12:11:29;;;;;;;1.10;1.00;;;20.40;90.60;;;;;;5120252;28;20191;-81
2023/01/01 12:14:29;;;;;;;1.20;1.10;;;19.90;90.70;;;;;;5120610;28;20199;-81
2023/01/01 12:16:58;;;;;;;2.60;1.00;;;19.30;90.40;;;;;;5111925;28;20194;-81
2023/01/01 12:19:40;;;;;;;2.30;1.27;;;18.90;92.10;;;;;;5123657;28;20203;-82
2023/01/01 12:22:14;;;;;;;1.20;1.10;;;18.70;91.80;;;;;;5121940;28;20243;-81
2023/01/01 12:24:40;;;;;;;1.43;0.90;;;18.60;92.50;;;;;;5123884;28;20175;-82
2023/01/01 12:27:22;;;;;;;1.20;1.03;;;18.50;91.90;;;;;;5131247;28;20175;-80
2023/01/01 12:29:56;;;;;;;1.20;1.07;;;18.30;92.40;;;;;;5125234;28;20195;-81
2023/01/01 12:32:40;;;;;;;2.80;1.20;;;18.30;91.80;;;;;;5121103;28;20185;-81
2023/01/01 12:35:25;;;;;;;1.60;1.37;;;18.20;92.60;;;;;;5122807;28;20183;-81
2023/01/01 12:38:11;;;;;;;1.87;1.20;;;18.10;91.80;;;;;;5121637;28;20186;-81
2023/01/01 12:40:42;;;;;;;2.90;1.23;;;17.90;92.50;;;;;;5123302;28;20215;-81
2023/01/01 12:43:34;;;;;;;1.50;1.20;;;17.90;91.80;;;;;;5122288;28;20181;-81
2023/01/01 12:46:54;;;;;;;2.20;1.50;;;17.80;93.10;;;;;;5124380;28;20252;-81
2023/01/01 12:49:49;;;;;;;1.33;1.23;;;17.60;93.10;;;;;;5083531;28;20206;-81
2023/01/01 12:52:40;;;;;;;2.77;1.27;;;17.50;92.90;;;;;;5126128;28;20205;-81
2023/01/01 12:55:49;;;;;;;1.67;1.30;;;17.50;92.80;;;;;;5125043;28;20548;-81
2023/01/01 12:58:20;;;;;;;3.40;1.40;;;17.20;93.20;;;;;;5111816;28;20195;-81
2023/01/01 13:01:06;;;;;;;1.67;1.10;;;17.10;93.50;;;;;;5125264;28;20241;-82
2023/01/01 13:03:48;;;;;;;1.77;1.43;;;17.00;93.50;;;;;;5125500;28;20179;-82
2023/01/01 13:06:17;;;;;;;1.40;1.30;;;16.90;94.00;;;;;;5128483;28;20176;-81
2023/01/01 13:08:50;;;;;;;1.97;1.47;;;16.90;94.20;;;;;;5136584;28;20278;-81
2023/01/01 13:11:16;;;;;;;1.50;1.30;;;16.90;94.80;;;;;;5129669;28;20172;-81
2023/01/01 13:13:42;;;;;;;2.20;1.80;;;16.90;94.80;;;;;;5124716;28;20180;-81
2023/01/01 13:16:11;;;;;;;6.30;1.57;;;16.80;95.00;;;;;;5126797;28;20172;-81
2023/01/01 13:18:37;;;;;;;2.57;1.60;;;16.70;95.10;;;;;;5125249;28;20563;-81
2023/01/01 13:21:05;;;;;;;1.83;1.50;;;16.80;95.50;;;;;;5126510;28;20172;-81
2023/01/01 13:23:30;;;;;;;3.07;1.70;;;16.70;95.60;;;;;;5123674;28;20179;-81
2023/01/01 13:26:21;;;;;;;1.70;1.20;;;16.70;95.00;;;;;;5126944;28;20185;-81
2023/01/01 13:28:56;;;;;;;4.23;1.60;;;16.60;95.60;;;;;;5124986;28;20249;-81
2023/01/01 13:31:37;;;;;;;2.90;1.23;;;16.60;95.80;;;;;;5124022;28;20207;-81
2023/01/01 13:34:30;;;;;;;1.90;1.50;;;16.60;95.80;;;;;;5125607;28;20178;-81
2023/01/01 13:37:14;;;;;;;3.63;1.50;;;16.50;96.60;;;;;;5125695;28;20172;-81
2023/01/01 13:40:02;;;;;;;1.70;1.60;;;16.30;96.10;;;;;;5122600;28;20214;-81
2023/01/01 13:43:06;;;;;;;1.77;1.50;;;16.20;96.20;;;;;;5121932;28;20740;-80
2023/01/01 13:45:38;;;;;;;1.90;1.40;;;16.20;96.40;;;;;;5109357;28;20184;-81
2023/01/01 13:48:26;;;;;;;4.00;3.17;;;16.20;96.50;;;;;;5121230;28;20176;-80
2023/01/01 13:51:03;;;;;;;3.53;2.50;;;16.30;95.80;;;;;;5123439;28;20166;-80
2023/01/01 13:53:53;;;;;;;6.67;6.03;;;16.30;96.00;;;;;;5121534;28;20237;-80
2023/01/01 13:56:36;;;;;;;6.03;3.20;;;16.30;97.10;;;;;;5121790;28;20211;-81
2023/01/01 13:59:22;;;;;;;5.47;3.87;;;16.20;96.30;;;;;;5120640;28;20212;-80
2023/01/01 14:02:10;;;;;;;5.80;5.23;;;16.20;95.90;;;;;;5121419;28;20183;-80
2023/01/01 14:04:42;;;;;;;9.83;8.93;;;16.20;96.00;;;;;;5118945;28;20152;-80
2023/01/01 14:07:36;;;;;;;8.47;7.67;;;16.20;96.50;;;;;;5117300;28;20168;-80
2023/01/01 14:10:22;;;;;;;7.30;6.33;;;16.10;97.00;;;;;;5118201;28;20664;-80
2023/01/01 14:12:48;;;;;;;9.00;8.20;;;16.00;96.50;;;;;;5117293;28;20180;-81
2023/01/01 14:15:32;;;;;;;4.87;4.43;;;16.00;97.40;;;;;;5117631;28;20232;-81
2023/01/01 14:18:00;;;;;;;5.30;4.80;;;15.80;97.20;;;;;;5118089;28;20176;-80
2023/01/01 14:20:36;;;;;;;11.17;8.57;;;15.60;98.20;;;;;;5118603;27;20203;-80
2023/01/01 14:23:18;;;;;;;7.60;4.37;;;15.50;97.70;;;;;;5118021;28;20183;-80
2023/01/01 14:25:44;;;;;;;4.73;3.57;;;15.30;97.50;;;;;;5117012;28;20172;-81
2023/01/01 14:28:24;;;;;;;5.20;2.10;;;15.30;98.20;;;;;;5118134;28;20208;-81
2023/01/01 14:30:50;;;;;;;4.23;2.50;;;15.30;98.40;;;;;;5118413;28;20196;-80
2023/01/01 14:33:31;;;;;;;1.93;1.40;;;15.20;99.00;;;;;;5118245;28;20191;-80
2023/01/01 14:36:05;;;;;;;3.63;2.33;;;15.20;98.50;;;;;;5116544;28;20175;-81
2023/01/01 14:38:33;;;;;;;3.97;2.50;;;15.10;99.40;;;;;;5117767;28;20179;-79
2023/01/01 14:41:23;;;;;;;19.13;11.17;;;15.10;98.70;;;;;;5117331;28;20215;-81
2023/01/01 14:43:50;;;;;;;15.53;7.23;;;15.00;99.50;;;;;;5113348;28;20186;-80
2023/01/01 14:46:22;;;;;;;7.60;3.40;;;14.90;99.90;;;;;;5123912;28;20167;-81
2023/01/01 14:48:57;;;;;;;10.10;6.87;;;14.70;99.90;;;;;;5124531;28;20240;-80
2023/01/01 14:51:27;;;;;;;6.37;3.43;;;14.50;99.90;;;;;;5123451;28;20579;-81
2023/01/01 14:53:57;;;;;;;4.33;2.70;;;14.40;99.90;;;;;;5124836;28;20542;-80
2023/01/01 14:56:41;;;;;;;4.80;3.20;;;14.20;99.90;;;;;;5122443;28;20655;-80
2023/01/01 14:59:31;;;;;;;4.60;3.47;;;14.10;99.90;;;;;;5120607;28;20301;-81
2023/01/01 15:02:13;;;;;;;6.83;3.70;;;13.90;99.90;;;;;;5116000;28;20183;-81
2023/01/01 15:04:39;;;;;;;2.07;1.70;;;13.80;99.90;;;;;;5111413;28;20239;-80
2023/01/01 15:07:05;;;;;;;1.93;1.40;;;13.70;99.90;;;;;;5121890;28;20164;-80
2023/01/01 15:09:31;;;;;;;3.90;2.17;;;13.70;99.90;;;;;;5120061;28;20252;-81
2023/01/01 15:11:58;;;;;;;5.17;2.40;;;13.70;99.90;;;;;;5122448;28;20175;-80
2023/01/01 15:14:34;;;;;;;4.20;2.10;;;13.40;99.90;;;;;;5121821;28;20568;-80
2023/01/01 15:17:09;;;;;;;3.33;1.93;;;13.40;99.90;;;;;;5123094;28;20167;-81
2023/01/01 15:19:37;;;;;;;6.40;2.30;;;13.30;99.90;;;;;;5122132;28;20199;-80
2023/01/01 15:22:24;;;;;;;6.33;2.23;;;13.10;99.90;;;;;;5122579;28;20352;-81
2023/01/01 15:24:50;;;;;;;3.13;1.83;;;13.00;99.90;;;;;;5124145;28;20183;-81
2023/01/01 15:27:26;;;;;;;5.10;2.20;;;12.80;99.90;;;;;;5122521;28;20176;-80
2023/01/01 15:29:52;;;;;;;9.90;1.83;;;12.70;99.90;;;;;;5122569;28;20695;-81
2023/01/01 15:32:27;;;;;;;2.00;1.50;;;12.60;99.90;;;;;;5122348;28;20251;-80
2023/01/01 15:35:18;;;;;;;3.73;1.70;;;12.60;99.90;;;;;;5123685;28;20222;-81
2023/01/01 15:37:58;;;;;;;1.93;1.40;;;12.50;99.90;;;;;;5122720;28;20223;-80
2023/01/01 15:40:23;;;;;;;5.13;1.90;;;12.40;99.90;;;;;;5121788;28;20230;-80
2023/01/01 15:42:55;;;;;;;2.30;2.07;;;12.30;99.90;;;;;;5119103;28;20182;-81
2023/01/01 15:45:30;;;;;;;4.77;1.80;;;12.30;99.90;;;;;;5122346;28;20171;-81
2023/01/01 15:48:09;;;;;;;3.23;2.17;;;12.30;99.90;;;;;;5122507;28;20194;-80
2023/01/01 15:50:43;;;;;;;4.70;2.00;;;12.40;99.90;;;;;;5121049;28;20714;-81
2023/01/01 15:53:28;;;;;;;5.53;2.77;;;12.50;99.90;;;;;;5121377;28;20151;-80
2023/01/01 15:56:04;;;;;;;4.57;2.70;;;12.50;99.90;;;;;;5120670;28;20190;-80
2023/01/01 15:58:30;;;;;;;4.03;2.93;;;12.40;99.90;;;;;;5121034;28;20266;-80
2023/01/01 16:01:08;;;;;;;4.13;2.83;;;12.40;99.90;;;;;;5121397;28;20670;-80
2023/01/01 16:03:38;;;;;;;7.47;4.63;;;12.40;99.90;;;;;;5121943;28;20175;-80
2023/01/01 16:06:04;;;;;;;9.27;5.10;;;12.30;99.90;;;;;;5120926;28;20187;-80
2023/01/01 16:08:30;;;;;;;7.60;4.93;;;12.20;99.90;;;;;;5119606;28;20179;-80
2023/01/01 16:10:57;;;;;;;9.40;5.87;;;12.20;99.90;;;;;;5121997;28;20228;-80
2023/01/01 16:13:22;;;;;;;8.73;5.20;;;12.10;99.90;;;;;;5121328;28;20179;-81
2023/01/01 16:16:00;;;;;;;9.87;5.43;;;12.00;99.90;;;;;;5121304;28;20254;-80
2023/01/01 16:18:37;;;;;;;10.97;6.97;;;12.00;99.90;;;;;;5122627;28;20230;-80
2023/01/01 16:21:04;;;;;;;9.87;6.30;;;11.80;99.90;;;;;;5122753;28;20179;-80
2023/01/01 16:23:30;;;;;;;11.30;6.23;;;11.80;99.90;;;;;;5124765;28;20213;-80
2023/01/01 16:25:56;;;;;;;8.30;5.60;;;11.70;99.90;;;;;;5127991;28;20524;-80
2023/01/01 16:28:22;;;;;;;6.13;4.37;;;11.60;99.90;;;;;;5126483;28;20629;-80
2023/01/01 16:30:48;;;;;;;4.90;3.70;;;11.50;99.90;;;;;;5124263;28;20225;-80
2023/01/01 16:33:16;;;;;;;6.73;5.13;;;11.50;99.90;;;;;;5125633;28;20186;-81
2023/01/01 16:35:42;;;;;;;19.40;17.40;;;11.50;99.90;;;;;;5126282;28;20246;-80
